sensor_id;sensor_type;location;lat;lon;timestamp;temperature;humidity
28069;DHT22;15382;47.578;8.086;2023-05-07T00:08:31;13.00;99.90
28069;DHT22;15382;47.578;8.086;2023-05-07T00:18:32;12.40;99.90
28069;DHT22;15382;47.578;8.086;2023-05-07T00:28:32;11.80;99.90
28069;DHT22;15382;47.578;8.086;2023-05-07T00:38:33;12.20;99.90
28069;DHT22;15382;47.578;8.086;2023-05-07T00:48:34;12.40;99.90
28069;DHT22;15382;47.578;8.086;2023-05-07T00:58:35;12.60;99.90
28069;DHT22;15382;47.578;8.086;2023-05-07T01:08:36;12.70;99.90
28069;DHT22;15382;47.578;8.086;2023-05-07T01:18:40;12.60;99.90
28069;DHT22;15382;47.578;8.086;2023-05-07T01:28:41;12.40;99.90
28069;DHT22;15382;47.578;8.086;2023-05-07T01:38:42;12.30;99.90
28069;DHT22;15382;47.578;8.086;2023-05-07T01:48:44;12.20;99.90
28069;DHT22;15382;47.578;8.086;2023-05-07T01:58:46;12.10;99.90
28069;DHT22;15382;47.578;8.086;2023-05-07T02:08:47;12.00;99.90
28069;DHT22;15382;47.578;8.086;2023-05-07T02:18:49;11.70;99.90
28069;DHT22;15382;47.578;8.086;2023-05-07T02:28:50;11.60;99.90
28069;DHT22;15382;47.578;8.086;2023-05-07T02:38:52;11.20;99.90
28069;DHT22;15382;47.578;8.086;2023-05-07T02:48:53;10.80;99.90
28069;DHT22;15382;47.578;8.086;2023-05-07T02:58:54;10.90;99.90
28069;DHT22;15382;47.578;8.086;2023-05-07T03:08:58;10.80;99.90
28069;DHT22;15382;47.578;8.086;2023-05-07T03:18:58;10.80;99.90
28069;DHT22;15382;47.578;8.086;2023-05-07T03:29:00;11.00;99.90
28069;DHT22;15382;47.578;8.086;2023-05-07T03:39:01;11.50;99.90
28069;DHT22;15382;47.578;8.086;2023-05-07T03:49:10;11.40;99.90
28069;DHT22;15382;47.578;8.086;2023-05-07T03:59:12;11.40;99.90
28069;DHT22;15382;47.578;8.086;2023-05-07T04:09:14;11.50;99.90
28069;DHT22;15382;47.578;8.086;2023-05-07T04:19:15;11.20;99.90
28069;DHT22;15382;47.578;8.086;2023-05-07T04:29:16;11.30;99.90
28069;DHT22;15382;47.578;8.086;2023-05-07T04:39:17;11.50;99.90
28069;DHT22;15382;47.578;8.086;2023-05-07T04:49:21;11.70;99.90
28069;DHT22;15382;47.578;8.086;2023-05-07T04:59:23;11.90;99.90
28069;DHT22;15382;47.578;8.086;2023-05-07T05:09:25;12.00;99.90
28069;DHT22;15382;47.578;8.086;2023-05-07T05:19:26;12.20;99.90
28069;DHT22;15382;47.578;8.086;2023-05-07T05:29:26;12.50;99.90
28069;DHT22;15382;47.578;8.086;2023-05-07T05:39:27;12.80;99.90
28069;DHT22;15382;47.578;8.086;2023-05-07T05:49:29;13.10;99.90
28069;DHT22;15382;47.578;8.086;2023-05-07T05:59:30;13.80;99.90
28069;DHT22;15382;47.578;8.086;2023-05-07T06:09:31;14.20;99.90
28069;DHT22;15382;47.578;8.086;2023-05-07T06:19:32;14.30;99.90
28069;DHT22;15382;47.578;8.086;2023-05-07T06:29:34;14.30;99.90
28069;DHT22;15382;47.578;8.086;2023-05-07T06:39:39;14.80;99.90
28069;DHT22;15382;47.578;8.086;2023-05-07T06:49:40;15.70;99.90
28069;DHT22;15382;47.578;8.086;2023-05-07T06:59:41;16.70;99.90
28069;DHT22;15382;47.578;8.086;2023-05-07T07:09:43;17.80;99.90
28069;DHT22;15382;47.578;8.086;2023-05-07T07:19:44;18.20;99.90
28069;DHT22;15382;47.578;8.086;2023-05-07T07:29:45;18.50;99.90
28069;DHT22;15382;47.578;8.086;2023-05-07T07:39:46;19.10;99.90
28069;DHT22;15382;47.578;8.086;2023-05-07T07:49:47;19.30;99.90
28069;DHT22;15382;47.578;8.086;2023-05-07T07:59:49;19.50;99.90
28069;DHT22;15382;47.578;8.086;2023-05-07T08:09:51;20.50;99.90
28069;DHT22;15382;47.578;8.086;2023-05-07T08:19:55;20.40;99.90
28069;DHT22;15382;47.578;8.086;2023-05-07T08:29:56;20.20;99.90
28069;DHT22;15382;47.578;8.086;2023-05-07T08:39:57;20.10;99.90
28069;DHT22;15382;47.578;8.086;2023-05-07T08:50:05;20.90;99.90
28069;DHT22;15382;47.578;8.086;2023-05-07T09:00:07;20.00;99.90
28069;DHT22;15382;47.578;8.086;2023-05-07T09:10:10;20.20;99.90
28069;DHT22;15382;47.578;8.086;2023-05-07T09:20:13;20.20;99.90
28069;DHT22;15382;47.578;8.086;2023-05-07T09:30:17;20.40;99.90
28069;DHT22;15382;47.578;8.086;2023-05-07T09:40:29;21.10;99.90
28069;DHT22;15382;47.578;8.086;2023-05-07T09:50:36;22.20;99.90
28069;DHT22;15382;47.578;8.086;2023-05-07T10:00:41;22.60;99.90
28069;DHT22;15382;47.578;8.086;2023-05-07T10:10:47;23.40;99.90
28069;DHT22;15382;47.578;8.086;2023-05-07T10:20:53;22.20;99.90
28069;DHT22;15382;47.578;8.086;2023-05-07T10:41:40;22.20;99.90
28069;DHT22;15382;47.578;8.086;2023-05-07T10:51:41;21.30;99.90
28069;DHT22;15382;47.578;8.086;2023-05-07T11:01:59;22.00;99.90
28069;DHT22;15382;47.578;8.086;2023-05-07T11:12:08;21.50;99.90
28069;DHT22;15382;47.578;8.086;2023-05-07T11:22:37;21.20;99.90
28069;DHT22;15382;47.578;8.086;2023-05-07T11:32:47;20.40;99.90
28069;DHT22;15382;47.578;8.086;2023-05-07T11:42:50;19.80;99.90
28069;DHT22;15382;47.578;8.086;2023-05-07T11:52:51;19.90;99.90
28069;DHT22;15382;47.578;8.086;2023-05-07T12:02:55;19.90;99.90
28069;DHT22;15382;47.578;8.086;2023-05-07T12:12:55;19.60;99.90
28069;DHT22;15382;47.578;8.086;2023-05-07T12:22:56;19.50;99.90
28069;DHT22;15382;47.578;8.086;2023-05-07T12:32:57;18.90;99.90
28069;DHT22;15382;47.578;8.086;2023-05-07T12:42:59;18.50;99.90
28069;DHT22;15382;47.578;8.086;2023-05-07T12:52:59;17.80;99.90
28069;DHT22;15382;47.578;8.086;2023-05-07T13:03:00;17.50;99.90
28069;DHT22;15382;47.578;8.086;2023-05-07T13:13:02;17.20;99.90
28069;DHT22;15382;47.578;8.086;2023-05-07T13:23:03;17.10;99.90
28069;DHT22;15382;47.578;8.086;2023-05-07T13:33:05;17.40;99.90
28069;DHT22;15382;47.578;8.086;2023-05-07T13:43:07;17.50;99.90
28069;DHT22;15382;47.578;8.086;2023-05-07T13:53:08;18.00;99.90
28069;DHT22;15382;47.578;8.086;2023-05-07T14:03:09;18.50;99.90
28069;DHT22;15382;47.578;8.086;2023-05-07T14:13:10;18.00;99.90
28069;DHT22;15382;47.578;8.086;2023-05-07T14:23:11;18.30;99.90
28069;DHT22;15382;47.578;8.086;2023-05-07T14:33:11;18.90;99.90
28069;DHT22;15382;47.578;8.086;2023-05-07T14:43:12;18.60;99.90
28069;DHT22;15382;47.578;8.086;2023-05-07T14:53:13;19.00;99.90
28069;DHT22;15382;47.578;8.086;2023-05-07T15:03:14;18.30;99.90
28069;DHT22;15382;47.578;8.086;2023-05-07T15:13:17;18.30;99.90
28069;DHT22;15382;47.578;8.086;2023-05-07T15:23:18;18.50;99.90
28069;DHT22;15382;47.578;8.086;2023-05-07T15:33:23;18.10;99.90
28069;DHT22;15382;47.578;8.086;2023-05-07T15:43:24;17.80;99.90
28069;DHT22;15382;47.578;8.086;2023-05-07T15:53:25;17.70;99.90
28069;DHT22;15382;47.578;8.086;2023-05-07T16:03:27;17.70;99.90
28069;DHT22;15382;47.578;8.086;2023-05-07T16:13:28;17.70;99.90
28069;DHT22;15382;47.578;8.086;2023-05-07T16:23:29;17.70;99.90
28069;DHT22;15382;47.578;8.086;2023-05-07T16:33:30;17.60;99.90
28069;DHT22;15382;47.578;8.086;2023-05-07T16:43:31;17.50;99.90
28069;DHT22;15382;47.578;8.086;2023-05-07T16:53:32;17.40;99.90
28069;DHT22;15382;47.578;8.086;2023-05-07T17:03:33;17.30;99.90
28069;DHT22;15382;47.578;8.086;2023-05-07T17:13:34;17.20;99.90
28069;DHT22;15382;47.578;8.086;2023-05-07T17:23:35;17.10;99.90
28069;DHT22;15382;47.578;8.086;2023-05-07T17:33:35;16.80;99.90
28069;DHT22;15382;47.578;8.086;2023-05-07T17:43:36;16.50;99.90
28069;DHT22;15382;47.578;8.086;2023-05-07T17:53:37;15.70;99.90
28069;DHT22;15382;47.578;8.086;2023-05-07T18:03:38;15.60;99.90
28069;DHT22;15382;47.578;8.086;2023-05-07T18:13:39;15.60;99.90
28069;DHT22;15382;47.578;8.086;2023-05-07T18:23:40;15.60;99.90
28069;DHT22;15382;47.578;8.086;2023-05-07T18:33:41;15.50;99.90
28069;DHT22;15382;47.578;8.086;2023-05-07T18:43:42;15.20;99.90
28069;DHT22;15382;47.578;8.086;2023-05-07T18:53:43;15.10;99.90
28069;DHT22;15382;47.578;8.086;2023-05-07T19:03:43;14.90;99.90
28069;DHT22;15382;47.578;8.086;2023-05-07T19:13:44;14.90;99.90
28069;DHT22;15382;47.578;8.086;2023-05-07T19:23:45;14.70;99.90
28069;DHT22;15382;47.578;8.086;2023-05-07T19:33:46;14.60;99.90
28069;DHT22;15382;47.578;8.086;2023-05-07T19:43:48;14.50;99.90
28069;DHT22;15382;47.578;8.086;2023-05-07T19:53:48;14.50;99.90
28069;DHT22;15382;47.578;8.086;2023-05-07T20:03:49;14.40;99.90
28069;DHT22;15382;47.578;8.086;2023-05-07T20:13:50;14.40;99.90
28069;DHT22;15382;47.578;8.086;2023-05-07T20:23:51;14.50;99.90
28069;DHT22;15382;47.578;8.086;2023-05-07T20:33:52;14.40;99.90
28069;DHT22;15382;47.578;8.086;2023-05-07T20:43:53;14.30;99.90
28069;DHT22;15382;47.578;8.086;2023-05-07T20:53:53;14.40;99.90
28069;DHT22;15382;47.578;8.086;2023-05-07T21:03:54;14.30;99.90
28069;DHT22;15382;47.578;8.086;2023-05-07T21:13:55;14.30;99.90
28069;DHT22;15382;47.578;8.086;2023-05-07T21:23:56;14.30;99.90
28069;DHT22;15382;47.578;8.086;2023-05-07T21:33:57;14.30;99.90
28069;DHT22;15382;47.578;8.086;2023-05-07T21:43:58;14.30;99.90
28069;DHT22;15382;47.578;8.086;2023-05-07T21:53:59;14.30;99.90
28069;DHT22;15382;47.578;8.086;2023-05-07T22:04:00;14.30;99.90
28069;DHT22;15382;47.578;8.086;2023-05-07T22:14:00;14.20;99.90
28069;DHT22;15382;47.578;8.086;2023-05-07T22:24:01;14.20;99.90
28069;DHT22;15382;47.578;8.086;2023-05-07T22:34:02;14.20;99.90
28069;DHT22;15382;47.578;8.086;2023-05-07T22:44:03;14.10;99.90
28069;DHT22;15382;47.578;8.086;2023-05-07T22:54:03;14.10;99.90
28069;DHT22;15382;47.578;8.086;2023-05-07T23:04:04;14.10;99.90
28069;DHT22;15382;47.578;8.086;2023-05-07T23:14:05;14.10;99.90
28069;DHT22;15382;47.578;8.086;2023-05-07T23:24:06;14.00;99.90
28069;DHT22;15382;47.578;8.086;2023-05-07T23:34:07;14.00;99.90
28069;DHT22;15382;47.578;8.086;2023-05-07T23:44:08;13.90;99.90
28069;DHT22;15382;47.578;8.086;2023-05-07T23:54:09;13.80;99.90
